Terminal Aerodrome Forecast
Issued by NWS Albany, NY

Home | Current Version | Previous Version | Text Only | Print | Product List | Glossary On
Versions: 1 2 3 4 5 6 7 8 9 10 11 12 13 14
842
FTUS41 KALY 250530
TAFPOU
TAF
KPOU 250530Z 2506/2606 00000KT P6SM SCT050 BKN120
     FM251200 34004KT P6SM OVC025
     FM251800 02005KT 6SM BR VCSH OVC020 PROB30 2518/2524 4SM -RA
      OVC015=

USA.gov is the U.S. government's official web portal to all federal, state and local government web resources and services.